createdAt,value
2023-05-14T21:52:47.173Z,79.17
2023-05-14T21:55:14.941Z,79.21
2023-05-14T21:57:42.390Z,79.35
2023-05-14T22:00:12.863Z,79.32
2023-05-14T22:02:40.706Z,79.56
2023-05-14T22:05:08.217Z,79.77
2023-05-14T22:07:35.788Z,79.89
2023-05-14T22:10:03.534Z,79.86
2023-05-14T22:12:31.265Z,79.98
2023-05-14T22:14:58.876Z,79.82
2023-05-14T22:17:26.375Z,79.90
2023-05-14T22:19:53.827Z,80.11
2023-05-14T22:22:21.310Z,80.16
2023-05-14T22:24:48.870Z,80.24
2023-05-14T22:27:16.354Z,80.39
2023-05-14T22:29:43.942Z,80.46
2023-05-14T22:32:11.702Z,80.62
2023-05-14T22:34:39.210Z,80.51
2023-05-14T22:37:06.718Z,80.80
2023-05-14T22:39:34.317Z,81.25
2023-05-14T22:42:01.778Z,81.45
2023-05-14T22:44:30.029Z,81.76
2023-05-14T22:46:57.840Z,81.80
2023-05-14T22:49:25.436Z,82.01
2023-05-14T22:51:55.818Z,82.41
2023-05-14T22:54:23.444Z,82.11
2023-05-14T22:56:51.504Z,81.89
2023-05-14T22:59:20.203Z,82.28
2023-05-14T23:01:49.198Z,82.26
2023-05-14T23:04:16.859Z,82.08
2023-05-14T23:06:44.598Z,81.93
2023-05-14T23:09:12.076Z,81.89
2023-05-14T23:11:39.790Z,82.19
2023-05-14T23:14:07.278Z,82.15
2023-05-14T23:16:34.820Z,81.99
2023-05-14T23:19:02.386Z,81.86
2023-05-14T23:21:30.025Z,81.76
2023-05-14T23:23:57.524Z,81.71
2023-05-14T23:26:25.049Z,81.92
2023-05-14T23:28:52.563Z,82.05
2023-05-14T23:31:20.067Z,82.17
2023-05-14T23:33:47.533Z,82.56
2023-05-14T23:36:16.187Z,82.70
2023-05-14T23:38:43.766Z,82.71
2023-05-14T23:41:11.260Z,82.99
2023-05-14T23:43:38.774Z,83.21
2023-05-14T23:46:06.357Z,84.18
2023-05-14T23:48:33.871Z,84.08
2023-05-14T23:51:01.374Z,83.83
2023-05-14T23:53:28.905Z,84.41
2023-05-14T23:55:56.546Z,84.86
2023-05-14T23:58:24.302Z,85.06
